Accueil
METAR-TAF:

METAR-TAF

Aéroports :

Kbely

Prague, République Tchèque

latitude: 50-07-17N, longitude: 14-32-37E, altitude: 286 m

Observation

Le bulletin a été fait il y a 25 minutes, à 13:00 UTC
Vent 3 kt de direction variable
Température 21°C
Humidité 35%
Pression 1023 hPa
Visibilité 10 km ou plus
pas de nuages en-dessous de 1500 mètres et pas de cumulonimbus.

METAR: LKKB 131300Z VRB03KT CAVOK 21/05 Q1023 NOSIG

Heure: 15:25 (13:25 UTC)

Prévision

Le bulletin a été fait il y a 2 heures et 25 minutes, à 11:00 UTC
Prévision valable du 13 à 12 UTC au 14 à 12 UTC
Vent 6 kt de est
Visibilité 10 km ou plus
pas de nuages en-dessous de 1500 mètres et pas de cumulonimbus.
Evoluant progressivement
du 13 à 19 UTC au 13 à 21 UTC
Vent 6 kt de sud/sud-est
Temporairement
du 14 à 09 UTC au 14 à 12 UTC
Nuages épars à une hauteur de 4000 ft

TAF: LKKB 131100Z 1312/1412 10006KT CAVOK BECMG 1319/1321 16006KT TEMPO 1409/1412 SCT040

Observations et prévisions météorologiques de plus de 4000 aéroports (messages METAR et TAF).

Les stations disponibles sont représentées par des disques jaunes et rouges sur la carte.

Passer la souris dessus pour voir le nom de la station.

Cliquer dessus pour voir les observations et prévisions météorologiques.

Pour changer de carte: cliquez sur les boutons verts avec une croix noire pour zoomer, sur le bouton vert avec un tiret pour effectuer un zoom arrière, ou sur les flèches vertes pour les cartes adjacentes.


METAR-TAF: